Time;durP1;ratioP1;P1;durP2;ratioP2;P2;SDS_P1;SDS_P2;PMS_P1;PMS_P2;Temp;Humidity;BMP_temperature;BMP_pressure;BME280_temperature;BME280_humidity;BME280_pressure;Samples;Min_cycle;Max_cycle;Signal;HPM_P1;HPM_P2
2022/06/03 00:02:03;;;;;;;;;;;20.70;49.10;;;;;;5073885;28;20007;-63
2022/06/03 00:04:39;;;;;;;;;;;20.70;49.10;;;;;;5073835;28;19915;-63
2022/06/03 00:07:21;;;;;;;;;;;20.70;49.10;;;;;;5072632;28;19970;-63
2022/06/03 00:10:00;;;;;;;;;;;20.70;49.10;;;;;;5056127;28;19909;-63
2022/06/03 00:12:44;;;;;;;;;;;20.70;49.10;;;;;;5055921;28;19908;-63
2022/06/03 00:15:19;;;;;;;;;;;20.70;49.10;;;;;;5073694;28;19909;-63
2022/06/03 00:17:55;;;;;;;;;;;20.70;49.10;;;;;;5073499;28;19942;-63
2022/06/03 00:20:23;;;;;;;;;;;20.70;49.10;;;;;;5072701;28;19912;-63
2022/06/03 00:23:07;;;;;;;;;;;20.70;49.10;;;;;;5073417;28;20003;-63
2022/06/03 00:25:51;;;;;;;;;;;20.70;49.10;;;;;;5073486;28;20290;-63
2022/06/03 00:28:35;;;;;;;;;;;20.70;49.20;;;;;;5072334;28;19912;-63
2022/06/03 00:31:15;;;;;;;;;;;20.70;49.10;;;;;;5073418;28;19915;-63
2022/06/03 00:33:44;;;;;;;;;;;20.70;49.30;;;;;;5072131;28;19952;-63
2022/06/03 00:36:29;;;;;;;;;;;20.60;49.20;;;;;;5072203;28;19939;-63
2022/06/03 00:38:54;;;;;;;;;;;20.60;49.30;;;;;;5073634;28;19913;-63
2022/06/03 00:41:40;;;;;;;;;;;20.60;49.30;;;;;;5073358;28;19909;-63
2022/06/03 00:44:06;;;;;;;;;;;20.60;49.40;;;;;;5072015;28;19909;-63
2022/06/03 00:46:37;;;;;;;;;;;20.60;49.30;;;;;;5073260;28;20305;-63
2022/06/03 00:49:32;;;;;;;;;;;20.60;49.40;;;;;;5073187;28;19916;-63
2022/06/03 00:52:00;;;;;;;;;;;20.50;49.30;;;;;;5001406;28;19910;-63
2022/06/03 00:54:35;;;;;;;;;;;20.60;49.40;;;;;;5072674;28;19951;-63
2022/06/03 00:57:00;;;;;;;;;;;20.60;49.40;;;;;;5071818;28;19940;-63
2022/06/03 00:59:25;;;;;;;;;;;20.60;49.40;;;;;;5073112;28;19916;-63
2022/06/03 01:02:00;;;;;;;;;;;20.50;49.30;;;;;;5073259;28;19915;-63
2022/06/03 01:04:28;;;;;;;;;;;20.50;49.40;;;;;;5072891;28;19908;-63
2022/06/03 01:07:00;;;;;;;;;;;20.60;49.40;;;;;;5072906;28;19909;-63
2022/06/03 01:09:26;;;;;;;;;;;20.50;49.30;;;;;;5072244;28;19915;-63
2022/06/03 01:12:02;;;;;;;;;;;20.50;49.30;;;;;;5071588;28;19908;-63
2022/06/03 01:14:30;;;;;;;;;;;20.50;49.30;;;;;;5072125;28;19912;-63
2022/06/03 01:17:05;;;;;;;;;;;20.50;49.40;;;;;;5072760;28;20403;-63
2022/06/03 01:19:30;;;;;;;;;;;20.50;49.50;;;;;;5071817;28;19912;-63
2022/06/03 01:21:55;;;;;;;;;;;20.40;49.40;;;;;;5072867;28;20104;-63
2022/06/03 01:24:44;;;;;;;;;;;20.50;49.50;;;;;;5072887;28;19974;-63
2022/06/03 01:27:39;;;;;;;;;;;20.40;49.40;;;;;;5055028;28;19920;-62
2022/06/03 01:30:24;;;;;;;;;;;20.50;49.50;;;;;;5001150;28;19910;-63
2022/06/03 01:32:55;;;;;;;;;;;20.40;49.40;;;;;;5072970;28;20264;-63
2022/06/03 01:35:24;;;;;;;;;;;20.40;49.50;;;;;;5072691;28;19930;-63
2022/06/03 01:37:53;;;;;;;;;;;20.40;49.50;;;;;;5073054;28;19908;-63
2022/06/03 01:40:48;;;;;;;;;;;20.40;49.50;;;;;;5072821;28;19971;-63
2022/06/03 01:43:25;;;;;;;;;;;20.40;49.40;;;;;;5000994;28;20013;-63
2022/06/03 01:45:50;;;;;;;;;;;20.40;49.40;;;;;;5073054;28;20431;-64
2022/06/03 01:48:39;;;;;;;;;;;20.40;49.60;;;;;;5072789;28;19952;-63
2022/06/03 01:51:23;;;;;;;;;;;20.40;49.60;;;;;;5034776;28;19954;-63
2022/06/03 01:54:18;;;;;;;;;;;20.40;49.60;;;;;;5072528;28;20336;-63
2022/06/03 01:56:58;;;;;;;;;;;20.40;49.60;;;;;;5055350;28;19909;-63
2022/06/03 01:59:33;;;;;;;;;;;20.40;49.60;;;;;;5072569;28;20433;-63
2022/06/03 02:02:17;;;;;;;;;;;20.40;49.50;;;;;;5072500;28;19912;-63
2022/06/03 02:04:51;;;;;;;;;;;20.40;49.50;;;;;;5072283;28;20375;-63
2022/06/03 02:07:33;;;;;;;;;;;20.40;49.60;;;;;;5074956;28;20383;-63
2022/06/03 02:10:04;;;;;;;;;;;20.40;49.60;;;;;;5074560;28;19924;-63
2022/06/03 02:12:50;;;;;;;;;;;20.40;49.50;;;;;;5076055;28;19908;-63
2022/06/03 02:15:24;;;;;;;;;;;20.40;49.60;;;;;;5074877;28;19908;-63
2022/06/03 02:18:01;;;;;;;;;;;20.40;49.50;;;;;;5074660;28;19920;-63
2022/06/03 02:20:45;;;;;;;;;;;20.30;49.50;;;;;;5074781;28;20367;-63
2022/06/03 02:23:11;;;;;;;;;;;20.30;49.50;;;;;;5075866;28;19908;-63
2022/06/03 02:25:36;;;;;;;;;;;20.30;49.50;;;;;;5075785;28;19909;-63
2022/06/03 02:28:20;;;;;;;;;;;20.30;49.60;;;;;;5075831;28;19917;-63
2022/06/03 02:31:08;;;;;;;;;;;20.30;49.60;;;;;;5075560;28;19956;-63
2022/06/03 02:33:46;;;;;;;;;;;20.30;49.60;;;;;;5075623;28;20323;-63
2022/06/03 02:36:11;;;;;;;;;;;20.30;49.70;;;;;;5074473;28;20365;-63
2022/06/03 02:38:43;;;;;;;;;;;20.30;49.60;;;;;;5075791;28;19958;-63
2022/06/03 02:41:11;;;;;;;;;;;20.30;49.60;;;;;;5075512;28;20372;-63
2022/06/03 02:43:39;;;;;;;;;;;20.30;49.60;;;;;;5075438;28;19908;-63
2022/06/03 02:46:06;;;;;;;;;;;20.20;49.60;;;;;;5075501;28;20034;-63
2022/06/03 02:48:38;;;;;;;;;;;20.20;50.20;;;;;;5075658;28;20336;-63
2022/06/03 02:51:13;;;;;;;;;;;20.20;49.50;;;;;;5074291;28;20362;-63
2022/06/03 02:53:41;;;;;;;;;;;20.20;49.80;;;;;;5074070;28;19909;-63
2022/06/03 02:56:16;;;;;;;;;;;20.20;49.60;;;;;;5075605;28;19954;-63
2022/06/03 02:58:46;;;;;;;;;;;20.20;49.50;;;;;;5074014;28;19908;-63
2022/06/03 03:01:20;;;;;;;;;;;20.20;49.50;;;;;;5073939;28;20373;-63
2022/06/03 03:03:49;;;;;;;;;;;20.20;49.50;;;;;;5075064;28;19909;-63
2022/06/03 03:06:23;;;;;;;;;;;20.20;49.50;;;;;;5075096;28;19908;-63
2022/06/03 03:09:01;;;;;;;;;;;20.20;49.60;;;;;;5075179;28;20285;-63
2022/06/03 03:11:41;;;;;;;;;;;20.20;49.50;;;;;;5074932;28;19909;-63
2022/06/03 03:14:09;;;;;;;;;;;20.20;49.50;;;;;;5074903;28;20380;-63
2022/06/03 03:16:53;;;;;;;;;;;20.20;49.50;;;;;;5074709;28;19927;-63
2022/06/03 03:19:26;;;;;;;;;;;20.20;49.50;;;;;;5074124;28;19955;-63
2022/06/03 03:22:10;;;;;;;;;;;20.20;49.50;;;;;;5073547;28;19931;-63
2022/06/03 03:24:45;;;;;;;;;;;20.20;49.50;;;;;;5074681;28;20373;-63
2022/06/03 03:27:30;;;;;;;;;;;20.20;49.50;;;;;;5074780;28;20360;-63
2022/06/03 03:30:01;;;;;;;;;;;20.20;49.50;;;;;;5073333;28;19909;-63
2022/06/03 03:32:26;;;;;;;;;;;20.20;49.50;;;;;;5056607;28;19912;-63
2022/06/03 03:35:18;;;;;;;;;;;20.20;49.60;;;;;;5074501;28;20394;-63
2022/06/03 03:37:49;;;;;;;;;;;20.20;49.60;;;;;;5043770;28;20313;-63
2022/06/03 03:40:33;;;;;;;;;;;20.20;49.50;;;;;;5056463;28;19908;-63
2022/06/03 03:43:09;;;;;;;;;;;20.20;49.50;;;;;;5074251;28;20283;-61
2022/06/03 03:45:53;;;;;;;;;;;20.20;49.60;;;;;;5073272;28;19908;-63
2022/06/03 03:48:22;;;;;;;;;;;20.20;49.50;;;;;;5074163;28;19920;-63
2022/06/03 03:50:48;;;;;;;;;;;20.10;49.40;;;;;;5073052;28;19953;-63
2022/06/03 03:53:29;;;;;;;;;;;20.20;49.50;;;;;;5074137;28;19915;-63
2022/06/03 03:56:13;;;;;;;;;;;20.20;49.50;;;;;;5074321;28;19913;-63
2022/06/03 03:58:57;;;;;;;;;;;20.10;49.50;;;;;;5074056;28;19913;-63
2022/06/03 04:01:41;;;;;;;;;;;20.10;49.50;;;;;;5074044;28;19982;-63
2022/06/03 04:04:25;;;;;;;;;;;20.10;49.60;;;;;;5072584;28;19915;-64
2022/06/03 04:06:56;;;;;;;;;;;20.00;49.70;;;;;;5072519;28;19912;-63
2022/06/03 04:09:27;;;;;;;;;;;20.00;49.60;;;;;;5073048;28;19908;-63
2022/06/03 04:12:11;;;;;;;;;;;20.00;49.70;;;;;;5072606;28;20014;-63
2022/06/03 04:14:43;;;;;;;;;;;20.10;49.80;;;;;;5073703;28;19998;-63
2022/06/03 04:17:27;;;;;;;;;;;20.00;49.60;;;;;;5073539;28;19927;-63
2022/06/03 04:19:52;;;;;;;;;;;20.10;49.50;;;;;;5073509;28;19913;-63
2022/06/03 04:22:31;;;;;;;;;;;20.10;49.60;;;;;;5073576;28;19909;-63
2022/06/03 04:25:06;;;;;;;;;;;20.10;49.50;;;;;;5072389;28;19909;-63
2022/06/03 04:27:50;;;;;;;;;;;20.10;49.50;;;;;;5072428;28;19916;-63
2022/06/03 04:30:21;;;;;;;;;;;20.10;49.50;;;;;;5071176;28;19969;-63
2022/06/03 04:32:50;;;;;;;;;;;20.10;49.50;;;;;;5073366;28;19908;-63
2022/06/03 04:35:21;;;;;;;;;;;20.10;49.60;;;;;;5073451;28;19947;-63
2022/06/03 04:37:55;;;;;;;;;;;20.10;49.60;;;;;;5073768;28;19908;-63
2022/06/03 04:40:21;;;;;;;;;;;20.10;49.60;;;;;;5073349;28;19908;-63
2022/06/03 04:43:05;;;;;;;;;;;20.10;49.60;;;;;;5073225;28;19973;-63
2022/06/03 04:45:36;;;;;;;;;;;20.10;50.20;;;;;;5073340;28;19939;-63
2022/06/03 04:48:20;;;;;;;;;;;20.10;49.60;;;;;;5073168;28;19928;-63
2022/06/03 04:50:59;;;;;;;;;;;20.10;49.50;;;;;;5073109;28;19909;-63
2022/06/03 04:53:27;;;;;;;;;;;20.10;49.60;;;;;;5072004;28;19909;-63
2022/06/03 04:56:11;;;;;;;;;;;20.10;49.60;;;;;;5073132;28;19916;-63
2022/06/03 04:58:52;;;;;;;;;;;20.00;49.50;;;;;;5073163;28;19909;-63
2022/06/03 05:01:38;;;;;;;;;;;20.00;49.50;;;;;;5071818;28;19909;-63
2022/06/03 05:04:18;;;;;;;;;;;20.00;49.50;;;;;;5072960;28;19909;-63
2022/06/03 05:07:03;;;;;;;;;;;20.10;49.60;;;;;;5071888;28;19908;-63
2022/06/03 05:10:01;;;;;;;;;;;20.00;49.60;;;;;;5078734;28;19912;-63
2022/06/03 05:12:45;;;;;;;;;;;20.00;49.60;;;;;;5028454;28;20004;-63
2022/06/03 05:15:29;;;;;;;;;;;20.00;49.80;;;;;;5072915;28;20312;-63
2022/06/03 05:18:09;;;;;;;;;;;20.00;49.70;;;;;;5072844;28;19931;-63
2022/06/03 05:20:35;;;;;;;;;;;20.00;50.40;;;;;;5072908;28;19948;-63
2022/06/03 05:23:10;;;;;;;;;;;20.00;49.70;;;;;;5073065;28;20315;-63
2022/06/03 05:25:57;;;;;;;;;;;20.00;49.70;;;;;;5071622;28;19908;-63
2022/06/03 05:28:22;;;;;;;;;;;20.00;49.60;;;;;;5071844;28;19948;-63
2022/06/03 05:30:54;;;;;;;;;;;20.00;49.60;;;;;;5072752;28;19909;-63
2022/06/03 05:33:36;;;;;;;;;;;20.00;49.80;;;;;;5072727;28;19958;-63
2022/06/03 05:36:07;;;;;;;;;;;20.00;49.80;;;;;;5071538;28;19963;-63
2022/06/03 05:38:52;;;;;;;;;;;20.00;49.70;;;;;;5071825;28;20287;-63
2022/06/03 05:44:13;;;;;;;;;;;20.00;49.60;;;;;;5055397;28;19916;-63
2022/06/03 05:46:45;;;;;;;;;;;20.00;49.70;;;;;;5075460;28;19909;-63
2022/06/03 05:49:29;;;;;;;;;;;19.90;49.70;;;;;;5076481;28;19912;-63
2022/06/03 05:51:55;;;;;;;;;;;19.90;49.90;;;;;;5058495;28;19909;-63
2022/06/03 05:54:20;;;;;;;;;;;19.80;50.10;;;;;;5076416;28;20280;-63
2022/06/03 05:56:45;;;;;;;;;;;19.90;50.00;;;;;;5076364;28;19955;-63
2022/06/03 05:59:12;;;;;;;;;;;19.90;49.70;;;;;;5076216;28;19909;-63
2022/06/03 06:01:51;;;;;;;;;;;19.80;49.90;;;;;;5075075;28;19909;-63
2022/06/03 06:04:28;;;;;;;;;;;19.80;50.10;;;;;;5076204;28;19912;-63
2022/06/03 06:06:54;;;;;;;;;;;19.90;50.00;;;;;;5076109;28;19915;-63
2022/06/03 06:09:38;;;;;;;;;;;19.90;49.80;;;;;;5076294;28;19913;-63
2022/06/03 06:12:24;;;;;;;;;;;19.90;49.90;;;;;;5075934;28;20295;-63
2022/06/03 06:15:13;;;;;;;;;;;19.80;49.90;;;;;;5074819;28;19959;-63
2022/06/03 06:17:56;;;;;;;;;;;19.90;49.90;;;;;;5038016;28;19924;-63
2022/06/03 06:20:27;;;;;;;;;;;19.90;49.70;;;;;;5074867;28;19909;-63
2022/06/03 06:22:53;;;;;;;;;;;19.90;50.00;;;;;;5074759;28;19908;-63
2022/06/03 06:25:21;;;;;;;;;;;19.90;50.00;;;;;;5075980;28;20364;-63
2022/06/03 06:28:19;;;;;;;;;;;20.00;49.80;;;;;;5075671;28;20285;-63
2022/06/03 06:30:44;;;;;;;;;;;20.00;49.80;;;;;;5031055;28;19916;-63
2022/06/03 06:33:23;;;;;;;;;;;20.10;49.60;;;;;;5075708;28;19913;-63
2022/06/03 06:35:59;;;;;;;;;;;20.00;49.50;;;;;;5074475;28;19998;-63
2022/06/03 06:38:30;;;;;;;;;;;20.00;49.80;;;;;;5074706;28;19916;-63
2022/06/03 06:41:14;;;;;;;;;;;19.90;49.90;;;;;;5075516;28;20477;-63
2022/06/03 06:43:47;;;;;;;;;;;19.80;49.90;;;;;;5075481;28;19908;-63
2022/06/03 06:46:31;;;;;;;;;;;19.80;50.00;;;;;;5074202;28;19912;-62
2022/06/03 06:49:15;;;;;;;;;;;19.90;49.90;;;;;;5075519;28;19920;-63
2022/06/03 06:52:03;;;;;;;;;;;19.90;50.00;;;;;;5075376;28;20319;-63
2022/06/03 06:54:51;;;;;;;;;;;19.90;50.00;;;;;;5074700;28;19962;-63
2022/06/03 06:57:21;;;;;;;;;;;20.00;49.80;;;;;;5075360;28;20400;-63
2022/06/03 07:00:07;;;;;;;;;;;20.00;49.80;;;;;;5073982;28;19908;-63
2022/06/03 07:02:44;;;;;;;;;;;19.90;49.90;;;;;;5075482;28;19962;-63
2022/06/03 07:05:21;;;;;;;;;;;19.80;50.00;;;;;;5073845;28;19908;-63
2022/06/03 07:07:49;;;;;;;;;;;19.80;50.20;;;;;;5075605;28;19912;-63
2022/06/03 07:10:16;;;;;;;;;;;19.80;50.20;;;;;;5073840;28;19915;-63
2022/06/03 07:12:47;;;;;;;;;;;19.80;50.20;;;;;;5075185;28;20465;-63
2022/06/03 07:15:25;;;;;;;;;;;19.90;50.20;;;;;;5075007;28;19913;-63
2022/06/03 07:20:57;;;;;;;;;;;19.90;50.00;;;;;;5074908;28;19916;-63
2022/06/03 07:23:23;;;;;;;;;;;20.00;50.00;;;;;;5033416;28;19916;-63
2022/06/03 07:25:51;;;;;;;;;;;20.00;50.10;;;;;;5074927;28;19958;-63
2022/06/03 07:28:29;;;;;;;;;;;19.90;49.80;;;;;;5073676;28;19913;-63
2022/06/03 07:31:00;;;;;;;;;;;19.90;49.90;;;;;;5073410;28;19908;-63
2022/06/03 07:33:25;;;;;;;;;;;19.90;49.90;;;;;;5074531;28;19970;-64
2022/06/03 07:35:55;;;;;;;;;;;19.90;50.20;;;;;;5074498;28;20326;-63
2022/06/03 07:38:20;;;;;;;;;;;20.00;50.00;;;;;;5073532;28;19909;-63
2022/06/03 07:41:09;;;;;;;;;;;19.90;50.00;;;;;;5074506;28;19909;-62
2022/06/03 07:43:48;;;;;;;;;;;19.90;50.20;;;;;;5036393;28;19954;-63
2022/06/03 07:46:21;;;;;;;;;;;20.00;50.10;;;;;;5073149;28;19944;-63
2022/06/03 07:48:46;;;;;;;;;;;20.10;50.00;;;;;;5073022;28;19912;-63
2022/06/03 07:51:15;;;;;;;;;;;20.00;49.80;;;;;;5072954;28;20012;-63
2022/06/03 07:53:43;;;;;;;;;;;20.10;49.80;;;;;;5073973;28;19969;-63
2022/06/03 07:56:09;;;;;;;;;;;20.20;49.90;;;;;;5074168;28;19912;-63
2022/06/03 07:58:37;;;;;;;;;;;20.20;49.70;;;;;;5074415;28;19958;-63
2022/06/03 08:01:04;;;;;;;;;;;20.20;49.60;;;;;;5073067;28;19938;-63
2022/06/03 08:03:34;;;;;;;;;;;20.30;49.50;;;;;;5072614;28;19915;-63
2022/06/03 08:06:01;;;;;;;;;;;20.30;49.40;;;;;;5073962;28;19915;-63
2022/06/03 08:11:18;;;;;;;;;;;20.40;49.30;;;;;;5072841;28;19916;-63
2022/06/03 08:13:45;;;;;;;;;;;20.30;49.30;;;;;;5073718;28;19920;-63
2022/06/03 08:16:11;;;;;;;;;;;20.20;49.50;;;;;;5073811;28;19923;-63
2022/06/03 08:18:40;;;;;;;;;;;20.30;49.40;;;;;;5072495;28;20003;-63
2022/06/03 08:21:07;;;;;;;;;;;20.40;49.30;;;;;;5072399;28;19909;-64
2022/06/03 08:23:33;;;;;;;;;;;20.40;49.30;;;;;;5072729;28;19908;-64
2022/06/03 08:25:59;;;;;;;;;;;20.30;49.40;;;;;;5072349;28;20310;-64
2022/06/03 08:28:25;;;;;;;;;;;20.30;49.50;;;;;;5073509;28;20007;-63
2022/06/03 08:30:51;;;;;;;;;;;20.30;49.40;;;;;;5072512;28;20391;-63
2022/06/03 08:33:19;;;;;;;;;;;20.30;49.50;;;;;;5072283;28;19963;-63
2022/06/03 08:35:46;;;;;;;;;;;20.30;49.60;;;;;;5055456;28;19908;-63
2022/06/03 08:38:17;;;;;;;;;;;20.20;49.60;;;;;;5072633;28;19909;-62
2022/06/03 08:40:55;;;;;;;;;;;20.20;49.80;;;;;;5073338;28;20395;-63
2022/06/03 08:43:40;;;;;;;;;;;20.10;49.80;;;;;;5072053;28;19952;-63
2022/06/03 08:46:11;;;;;;;;;;;20.20;49.90;;;;;;5073339;28;19999;-63
2022/06/03 08:48:40;;;;;;;;;;;20.20;49.70;;;;;;5073134;28;19961;-63
2022/06/03 08:51:14;;;;;;;;;;;20.20;49.80;;;;;;5071963;28;19909;-63
2022/06/03 08:53:49;;;;;;;;;;;20.10;49.80;;;;;;5073180;28;19916;-63
2022/06/03 08:56:19;;;;;;;;;;;20.10;49.80;;;;;;5072205;28;19955;-63
2022/06/03 08:58:44;;;;;;;;;;;20.10;49.90;;;;;;5071746;28;20279;-62
2022/06/03 09:01:16;;;;;;;;;;;20.20;50.00;;;;;;5072938;28;19908;-63
2022/06/03 09:03:50;;;;;;;;;;;20.20;49.90;;;;;;5072914;28;19948;-63
2022/06/03 09:06:29;;;;;;;;;;;20.20;49.90;;;;;;5073016;28;19944;-63
2022/06/03 09:08:58;;;;;;;;;;;20.20;49.90;;;;;;5071918;28;19967;-63
2022/06/03 09:11:28;;;;;;;;;;;20.20;49.90;;;;;;5071732;28;19913;-64
2022/06/03 09:13:59;;;;;;;;;;;20.20;49.90;;;;;;5072858;28;19915;-63
2022/06/03 09:16:25;;;;;;;;;;;20.20;49.90;;;;;;5074613;28;19924;-63
2022/06/03 09:18:55;;;;;;;;;;;20.20;49.90;;;;;;5078720;28;19909;-64
2022/06/03 09:21:23;;;;;;;;;;;20.20;49.90;;;;;;5078317;28;20373;-64
2022/06/03 09:23:49;;;;;;;;;;;20.20;50.00;;;;;;5078244;28;19999;-64
2022/06/03 09:26:25;;;;;;;;;;;20.20;49.90;;;;;;5078186;28;19916;-63
2022/06/03 09:28:52;;;;;;;;;;;20.30;50.00;;;;;;5079257;28;19983;-63
2022/06/03 09:31:18;;;;;;;;;;;20.30;50.00;;;;;;5079517;28;20003;-63
2022/06/03 09:33:43;;;;;;;;;;;20.30;50.00;;;;;;5078202;28;19956;-63
2022/06/03 09:36:14;;;;;;;;;;;20.30;50.00;;;;;;5079449;28;20325;-63
2022/06/03 09:38:45;;;;;;;;;;;20.30;50.00;;;;;;5086520;28;19915;-63
2022/06/03 09:41:10;;;;;;;;;;;20.30;50.00;;;;;;5079508;28;19931;-63
2022/06/03 09:43:36;;;;;;;;;;;20.30;50.00;;;;;;5079436;28;19908;-63
2022/06/03 09:46:02;;;;;;;;;;;20.40;50.00;;;;;;5079366;28;19908;-63
2022/06/03 09:48:28;;;;;;;;;;;20.40;50.00;;;;;;5079277;28;20336;-63
2022/06/03 09:50:54;;;;;;;;;;;20.40;50.10;;;;;;5079316;28;20007;-63
2022/06/03 09:53:20;;;;;;;;;;;20.30;50.00;;;;;;5078073;28;19952;-63
2022/06/03 09:55:53;;;;;;;;;;;20.40;50.00;;;;;;5078133;28;19913;-63
2022/06/03 09:58:20;;;;;;;;;;;20.40;50.00;;;;;;5078087;28;19915;-63
2022/06/03 10:00:46;;;;;;;;;;;20.40;50.00;;;;;;5077954;28;19948;-63
2022/06/03 10:03:12;;;;;;;;;;;20.40;49.90;;;;;;5077966;28;19963;-63
2022/06/03 10:05:38;;;;;;;;;;;20.40;49.80;;;;;;5079219;28;19909;-63
2022/06/03 10:08:04;;;;;;;;;;;20.40;49.70;;;;;;5078076;28;19916;-63
2022/06/03 10:13:14;;;;;;;;;;;20.40;49.70;;;;;;5079093;28;19915;-64
2022/06/03 10:15:43;;;;;;;;;;;20.50;49.90;;;;;;5077771;28;19998;-63
2022/06/03 10:18:31;;;;;;;;;;;20.50;50.00;;;;;;5078272;28;19995;-63
2022/06/03 10:21:16;;;;;;;;;;;20.50;49.90;;;;;;5079014;28;20277;-63
2022/06/03 10:23:42;;;;;;;;;;;20.50;50.00;;;;;;5077248;28;19909;-63
2022/06/03 10:26:07;;;;;;;;;;;20.50;50.00;;;;;;5079031;28;20407;-63
2022/06/03 10:28:39;;;;;;;;;;;20.50;49.80;;;;;;5076308;28;19916;-63
2022/06/03 10:31:06;;;;;;;;;;;20.60;49.80;;;;;;5075781;28;19908;-64
2022/06/03 10:33:32;;;;;;;;;;;20.60;49.60;;;;;;5075635;28;19955;-64
2022/06/03 10:35:58;;;;;;;;;;;20.60;49.60;;;;;;5075710;28;19909;-63
2022/06/03 10:38:25;;;;;;;;;;;20.60;49.50;;;;;;5075942;28;19958;-63
2022/06/03 10:40:51;;;;;;;;;;;20.70;49.60;;;;;;5075475;28;19991;-63
2022/06/03 10:43:25;;;;;;;;;;;20.70;49.40;;;;;;5075620;28;19940;-63
2022/06/03 10:45:51;;;;;;;;;;;20.70;49.30;;;;;;5074154;28;20003;-63
2022/06/03 10:48:19;;;;;;;;;;;20.70;49.50;;;;;;5075303;28;20346;-63
2022/06/03 10:50:45;;;;;;;;;;;20.70;49.20;;;;;;5074060;28;19919;-63
2022/06/03 11:01:25;;;;;;;;;;;20.80;49.10;;;;;;5075246;28;20022;-63
2022/06/03 11:03:52;;;;;;;;;;;20.80;49.10;;;;;;5075038;28;19916;-63
2022/06/03 11:06:18;;;;;;;;;;;20.80;49.40;;;;;;5075438;28;19913;-63
2022/06/03 11:08:47;;;;;;;;;;;20.80;49.20;;;;;;5073930;28;19922;-63
2022/06/03 11:11:13;;;;;;;;;;;20.90;49.00;;;;;;5074065;28;20050;-63
2022/06/03 11:13:39;;;;;;;;;;;20.90;49.00;;;;;;5074941;28;19970;-63
2022/06/03 11:16:15;;;;;;;;;;;20.90;48.80;;;;;;5074807;28;19920;-63
2022/06/03 11:18:41;;;;;;;;;;;21.00;48.80;;;;;;5073637;28;20283;-63
2022/06/03 11:21:16;;;;;;;;;;;21.00;48.40;;;;;;5074842;28;20372;-63
2022/06/03 11:23:41;;;;;;;;;;;21.00;48.40;;;;;;5074688;28;20316;-63
2022/06/03 11:26:07;;;;;;;;;;;21.00;48.90;;;;;;5074728;28;19993;-63
2022/06/03 11:28:34;;;;;;;;;;;21.10;49.10;;;;;;5074714;28;19962;-63
2022/06/03 11:31:02;;;;;;;;;;;21.10;49.10;;;;;;5073395;28;19916;-63
2022/06/03 11:33:30;;;;;;;;;;;21.10;48.70;;;;;;5074719;28;20287;-63
2022/06/03 11:35:59;;;;;;;;;;;21.10;49.00;;;;;;5074573;28;19954;-63
2022/06/03 11:38:34;;;;;;;;;;;21.10;48.70;;;;;;5074505;28;19991;-63
2022/06/03 11:41:01;;;;;;;;;;;21.10;49.00;;;;;;5074460;28;19912;-63
2022/06/03 11:43:32;;;;;;;;;;;21.10;48.40;;;;;;5074315;28;19955;-63
2022/06/03 11:45:58;;;;;;;;;;;21.20;48.80;;;;;;5074245;28;19908;-63
2022/06/03 11:48:31;;;;;;;;;;;21.20;49.00;;;;;;5074172;28;20368;-63
2022/06/03 11:50:57;;;;;;;;;;;21.20;49.00;;;;;;5073047;28;19908;-63
2022/06/03 11:53:26;;;;;;;;;;;21.20;48.60;;;;;;5074523;28;19957;-63
2022/06/03 11:55:56;;;;;;;;;;;21.20;48.50;;;;;;5074190;28;20284;-63
2022/06/03 11:58:37;;;;;;;;;;;21.20;48.40;;;;;;5074345;28;19909;-63
2022/06/03 12:01:06;;;;;;;;;;;21.20;48.80;;;;;;5074129;28;19909;-63
2022/06/03 12:03:41;;;;;;;;;;;21.20;48.80;;;;;;5072789;28;19914;-63
2022/06/03 12:06:10;;;;;;;;;;;21.30;48.80;;;;;;5072739;28;19977;-63
2022/06/03 12:08:42;;;;;;;;;;;21.30;48.50;;;;;;5074057;28;19937;-63
2022/06/03 12:11:10;;;;;;;;;;;21.30;48.60;;;;;;5073911;28;19913;-63
2022/06/03 12:13:35;;;;;;;;;;;21.40;48.70;;;;;;5073858;28;19920;-63
2022/06/03 12:16:18;;;;;;;;;;;21.40;48.90;;;;;;5073538;28;19924;-63
2022/06/03 12:19:01;;;;;;;;;;;21.40;48.90;;;;;;5073654;28;19952;-64
2022/06/03 12:21:30;;;;;;;;;;;21.40;48.90;;;;;;5073858;28;20279;-64
2022/06/03 12:24:16;;;;;;;;;;;21.40;49.00;;;;;;5073552;28;19944;-64
2022/06/03 12:26:42;;;;;;;;;;;21.40;48.90;;;;;;5073949;28;20047;-63
2022/06/03 12:29:09;;;;;;;;;;;21.40;49.00;;;;;;5072156;28;19935;-63
2022/06/03 12:31:41;;;;;;;;;;;21.50;49.10;;;;;;5072226;28;20399;-63
2022/06/03 12:34:09;;;;;;;;;;;21.50;49.00;;;;;;5072301;28;20280;-63
2022/06/03 12:36:39;;;;;;;;;;;21.50;49.10;;;;;;5073729;28;20007;-63
2022/06/03 12:39:05;;;;;;;;;;;21.50;48.90;;;;;;5072724;28;19962;-63
2022/06/03 12:41:45;;;;;;;;;;;21.60;48.90;;;;;;5073258;28;19916;-63
2022/06/03 12:44:29;;;;;;;;;;;21.60;49.10;;;;;;5073028;28;19931;-63
2022/06/03 12:47:07;;;;;;;;;;;21.60;49.00;;;;;;5073158;28;19908;-64
2022/06/03 12:49:32;;;;;;;;;;;21.60;48.60;;;;;;5071938;28;19913;-63
2022/06/03 12:52:03;;;;;;;;;;;21.70;48.10;;;;;;5072368;28;19913;-63
2022/06/03 12:54:29;;;;;;;;;;;21.80;48.00;;;;;;5072486;28;19908;-63
2022/06/03 12:57:08;;;;;;;;;;;21.80;47.70;;;;;;5073128;28;19909;-63
2022/06/03 12:59:41;;;;;;;;;;;21.90;47.40;;;;;;5071881;28;19912;-63
2022/06/03 13:02:17;;;;;;;;;;;22.00;47.00;;;;;;5071892;28;20296;-63
2022/06/03 13:04:47;;;;;;;;;;;22.00;46.90;;;;;;5071901;28;20322;-63
2022/06/03 13:07:13;;;;;;;;;;;22.10;47.50;;;;;;5071816;28;19912;-63
2022/06/03 13:09:47;;;;;;;;;;;22.10;47.00;;;;;;5073293;28;19916;-64
2022/06/03 13:12:19;;;;;;;;;;;22.10;46.60;;;;;;5073016;28;19909;-62
2022/06/03 13:14:44;;;;;;;;;;;22.20;46.80;;;;;;5071689;28;19916;-63
2022/06/03 13:17:30;;;;;;;;;;;22.20;46.80;;;;;;5072629;28;19920;-63
2022/06/03 13:19:56;;;;;;;;;;;22.20;46.90;;;;;;5072817;28;19913;-63
2022/06/03 13:22:25;;;;;;;;;;;22.20;46.50;;;;;;5071605;28;20003;-63
2022/06/03 13:25:11;;;;;;;;;;;22.30;46.30;;;;;;5073077;28;20005;-63
2022/06/03 13:27:36;;;;;;;;;;;22.30;46.60;;;;;;5058754;28;20014;-63
2022/06/03 13:30:04;;;;;;;;;;;22.30;46.30;;;;;;5072742;28;20203;-63
2022/06/03 13:32:35;;;;;;;;;;;22.30;46.30;;;;;;5071449;28;19915;-64
2022/06/03 13:35:05;;;;;;;;;;;22.40;46.40;;;;;;5072741;28;19913;-63
2022/06/03 13:37:45;;;;;;;;;;;22.40;46.90;;;;;;5072937;28;19908;-63
2022/06/03 13:40:19;;;;;;;;;;;22.30;47.30;;;;;;5071532;28;19908;-63
2022/06/03 13:42:58;;;;;;;;;;;22.30;47.30;;;;;;5072784;28;19908;-63
2022/06/03 13:45:24;;;;;;;;;;;22.30;46.70;;;;;;5073119;28;19935;-63
2022/06/03 13:47:50;;;;;;;;;;;22.30;46.40;;;;;;5071616;28;19913;-63
2022/06/03 13:50:30;;;;;;;;;;;22.40;46.50;;;;;;5071614;28;19909;-63
2022/06/03 13:52:59;;;;;;;;;;;22.40;46.60;;;;;;5072626;28;19940;-64
2022/06/03 13:55:37;;;;;;;;;;;22.40;47.00;;;;;;5071398;28;20402;-63
2022/06/03 13:58:11;;;;;;;;;;;22.50;46.90;;;;;;5071262;28;19915;-63
2022/06/03 14:00:50;;;;;;;;;;;22.50;46.50;;;;;;5072833;28;20399;-63
2022/06/03 14:03:23;;;;;;;;;;;22.50;46.30;;;;;;5075082;28;19916;-63
2022/06/03 14:06:01;;;;;;;;;;;22.50;47.20;;;;;;5076525;28;19908;-63
2022/06/03 14:08:28;;;;;;;;;;;22.50;46.00;;;;;;5075356;28;19913;-63
2022/06/03 14:10:56;;;;;;;;;;;22.50;46.10;;;;;;5076083;28;19909;-64
2022/06/03 14:13:30;;;;;;;;;;;22.60;46.60;;;;;;5076166;28;20440;-63
2022/06/03 14:16:02;;;;;;;;;;;22.60;46.60;;;;;;5076014;28;19913;-63
2022/06/03 14:18:50;;;;;;;;;;;22.60;46.60;;;;;;5076030;28;19997;-63
2022/06/03 14:21:32;;;;;;;;;;;22.60;46.60;;;;;;5076296;28;19920;-63
2022/06/03 14:23:59;;;;;;;;;;;22.60;46.60;;;;;;5075919;28;19909;-63
2022/06/03 14:26:27;;;;;;;;;;;22.60;46.70;;;;;;5075960;28;19908;-63
2022/06/03 14:28:54;;;;;;;;;;;22.60;46.60;;;;;;5075728;28;19978;-63
2022/06/03 14:31:36;;;;;;;;;;;22.60;46.40;;;;;;5074632;28;19909;-63
2022/06/03 14:34:23;;;;;;;;;;;22.60;46.00;;;;;;5075642;28;19958;-63
2022/06/03 14:36:49;;;;;;;;;;;22.70;46.40;;;;;;5075678;28;19908;-64
2022/06/03 14:39:16;;;;;;;;;;;22.70;46.30;;;;;;5074645;28;20015;-64
2022/06/03 14:41:44;;;;;;;;;;;22.70;45.90;;;;;;5074473;28;19908;-64
2022/06/03 14:44:15;;;;;;;;;;;22.70;45.70;;;;;;5074434;28;19913;-64
2022/06/03 14:46:45;;;;;;;;;;;22.70;46.10;;;;;;5057737;28;19909;-64
2022/06/03 14:49:12;;;;;;;;;;;22.70;45.80;;;;;;5075360;28;20361;-64
2022/06/03 14:51:39;;;;;;;;;;;22.70;45.80;;;;;;5074247;28;19951;-63
2022/06/03 14:54:09;;;;;;;;;;;22.80;46.10;;;;;;5074128;28;19909;-63
2022/06/03 14:56:54;;;;;;;;;;;22.80;46.20;;;;;;5074155;28;19919;-63
2022/06/03 14:59:38;;;;;;;;;;;22.80;45.90;;;;;;5075405;28;19914;-63
2022/06/03 15:02:08;;;;;;;;;;;22.80;46.30;;;;;;5075102;28;19912;-63
2022/06/03 15:04:33;;;;;;;;;;;22.80;46.50;;;;;;5075076;28;19908;-63
2022/06/03 15:07:03;;;;;;;;;;;22.80;46.70;;;;;;5075095;28;19912;-64
2022/06/03 15:09:34;;;;;;;;;;;22.80;46.70;;;;;;5074226;28;20272;-64
2022/06/03 15:12:00;;;;;;;;;;;22.80;46.70;;;;;;5074025;28;19940;-63